Endeavor CRJ9 at New York on Jul 30th 2022, wing tip strike on landing

Last Update: August 1, 2022 / 16:45:27 GMT/Zulu time

Bookmark this article
Incident Facts

Date of incident
Jul 30, 2022

Classification
Incident

Flight number
DL-5239

Aircraft Registration
N146PQ

ICAO Type Designator
CRJ9

Airport ICAO Code
KLGA

An Endeavor Air Canadair CRJ-900 on behalf of Delta Airlines, registration N146PQ performing flight DL-5239 from Cleveland,OH to New York La Guardia,NY (USA), landed on La Guardia's runway 04 at about 16:00L (20:00Z) when the right hand wing tip contacted the runway surface. The aircraft rolled out without further incident and taxied to the apron.

The FAA reported: "AIRCRAFT RIGHT WING TOUCHED RUNWAY ON LANDING, NEW YORK, NY.", the damage was minor.

The aircraft remained on the ground for about 43 hours before returning to service.



Metars:
KLGA 302151Z 31008KT 10SM SCT075 BKN250 29/11 A3003 RMK AO2 SLP168 T02940111=
KLGA 302051Z 30007KT 10SM SCT070 SCT250 31/12 A3003 RMK AO2 SLP167 T03110117 55002=
KLGA 301951Z 33013G17KT 10SM SCT070 BKN250 30/12 A3002 RMK AO2 SLP166 T03000117=
KLGA 301851Z 33011G21KT 10SM SCT070 BKN250 29/12 A3003 RMK AO2 SLP167 T02940117=
KLGA 301751Z 32008G17KT 10SM BKN075 BKN250 29/12 A3003 RMK AO2 SLP169 T02940117 10294 20244 53002=
KLGA 301651Z 32010G23KT 10SM SCT065 SCT250 29/12 A3003 RMK AO2 SLP168 T02890122=
Aircraft Registration Data
Registration mark
N146PQ
Country of Registration
United States
Date of Registration
Gcnjbhclhlkcknn Subscribe to unlock
Manufacturer
BOMBARDIER INC
Aircraft Model / Type
CL-600-2D24
Number of Seats
ICAO Aircraft Type
CRJ9
Year of Manufacture
Serial Number
Aircraft Address / Mode S Code (HEX)
Engine Count
Engine Manufacturer
Engine Model
Engine Type
Pounds of Thrust
Main Owner
Jjkgmi gmeefkliliqhAffclAfjbcmkgccl edip AAenhgAkd depdepbijAffqbiiidAhlk Aphiecncqfl pgAnAiiAqpjjcgcmlefjqidkjbhkln Subscribe to unlock
Incident Facts

Date of incident
Jul 30, 2022

Classification
Incident

Flight number
DL-5239

Aircraft Registration
N146PQ

ICAO Type Designator
CRJ9

Airport ICAO Code
KLGA

This article is published under license from Avherald.com. © of text by Avherald.com.
Article source

You can read 2 more free articles without a subscription.

Subscribe now and continue reading without any limits!

Are you a subscriber? Login
Subscribe

Read unlimited articles and receive our daily update briefing. Gain better insights into what is happening in commercial aviation safety.

Send tip

Support AeroInside by sending a small tip amount.

Related articles

Newest articles

Subscribe today

Are you researching aviation incidents? Get access to AeroInside Insights, unlimited read access and receive the daily newsletter.

Pick your plan and subscribe

Partner

Blockaviation logo

A new way to document and demonstrate airworthiness compliance and aircraft value. Find out more.

ELITE Logo

ELITE Simulation Solutions is a leading global provider of Flight Simulation Training Devices, IFR training software as well as flight controls and related services. Find out more.

Blue Altitude Logo

Your regulation partner, specialists in aviation safety and compliance; providing training, auditing, and consultancy services. Find out more.

AeroInside Blog
Popular aircraft
Airbus A320
Boeing 737-800
Boeing 737-800 MAX
Popular airlines
American Airlines
United
Delta
Air Canada
Lufthansa
British Airways